sensor_id;sensor_type;location;lat;lon;timestamp;temperature;humidity
14475;DHT22;7323;50.848;4.334;2023-07-31T00:00:18;18.10;99.90
14475;DHT22;7323;50.848;4.334;2023-07-31T00:02:44;18.10;99.90
14475;DHT22;7323;50.848;4.334;2023-07-31T00:05:15;18.10;99.90
14475;DHT22;7323;50.848;4.334;2023-07-31T00:07:40;18.10;99.90
14475;DHT22;7323;50.848;4.334;2023-07-31T00:10:06;18.10;99.90
14475;DHT22;7323;50.848;4.334;2023-07-31T00:12:32;18.10;99.90
14475;DHT22;7323;50.848;4.334;2023-07-31T00:14:58;18.20;99.90
14475;DHT22;7323;50.848;4.334;2023-07-31T00:17:23;18.20;99.90
14475;DHT22;7323;50.848;4.334;2023-07-31T00:19:49;18.10;99.90
14475;DHT22;7323;50.848;4.334;2023-07-31T00:22:17;18.10;99.90
14475;DHT22;7323;50.848;4.334;2023-07-31T00:24:42;18.10;99.90
14475;DHT22;7323;50.848;4.334;2023-07-31T00:27:08;18.10;99.90
14475;DHT22;7323;50.848;4.334;2023-07-31T00:29:34;18.20;99.90
14475;DHT22;7323;50.848;4.334;2023-07-31T00:31:59;18.20;99.90
14475;DHT22;7323;50.848;4.334;2023-07-31T00:34:26;18.20;99.90
14475;DHT22;7323;50.848;4.334;2023-07-31T00:36:51;18.20;99.90
14475;DHT22;7323;50.848;4.334;2023-07-31T00:39:18;18.20;99.90
14475;DHT22;7323;50.848;4.334;2023-07-31T00:41:44;18.20;99.90
14475;DHT22;7323;50.848;4.334;2023-07-31T00:44:09;18.20;99.90
14475;DHT22;7323;50.848;4.334;2023-07-31T00:46:35;18.20;99.90
14475;DHT22;7323;50.848;4.334;2023-07-31T00:49:01;18.20;99.90
14475;DHT22;7323;50.848;4.334;2023-07-31T00:51:26;18.10;99.90
14475;DHT22;7323;50.848;4.334;2023-07-31T00:53:53;18.10;99.90
14475;DHT22;7323;50.848;4.334;2023-07-31T00:56:19;18.10;99.90
14475;DHT22;7323;50.848;4.334;2023-07-31T00:58:45;18.10;99.90
14475;DHT22;7323;50.848;4.334;2023-07-31T01:01:11;18.10;99.90
14475;DHT22;7323;50.848;4.334;2023-07-31T01:03:36;18.10;99.90
14475;DHT22;7323;50.848;4.334;2023-07-31T01:06:15;18.20;99.90
14475;DHT22;7323;50.848;4.334;2023-07-31T01:08:51;18.30;99.90
14475;DHT22;7323;50.848;4.334;2023-07-31T01:11:25;18.40;99.90
14475;DHT22;7323;50.848;4.334;2023-07-31T01:13:54;18.30;99.90
14475;DHT22;7323;50.848;4.334;2023-07-31T01:16:19;18.30;99.90
14475;DHT22;7323;50.848;4.334;2023-07-31T01:18:45;18.20;99.90
14475;DHT22;7323;50.848;4.334;2023-07-31T01:27:15;18.10;99.90
14475;DHT22;7323;50.848;4.334;2023-07-31T01:29:59;18.20;99.90
14475;DHT22;7323;50.848;4.334;2023-07-31T01:32:28;18.20;99.90
14475;DHT22;7323;50.848;4.334;2023-07-31T01:34:54;18.10;99.90
14475;DHT22;7323;50.848;4.334;2023-07-31T01:37:21;18.10;99.90
14475;DHT22;7323;50.848;4.334;2023-07-31T01:39:46;18.10;99.90
14475;DHT22;7323;50.848;4.334;2023-07-31T01:42:12;18.00;99.90
14475;DHT22;7323;50.848;4.334;2023-07-31T01:44:38;18.00;99.90
14475;DHT22;7323;50.848;4.334;2023-07-31T01:47:03;18.10;99.90
14475;DHT22;7323;50.848;4.334;2023-07-31T01:49:30;18.20;99.90
14475;DHT22;7323;50.848;4.334;2023-07-31T01:51:56;18.10;99.90
14475;DHT22;7323;50.848;4.334;2023-07-31T01:54:21;18.10;99.90
14475;DHT22;7323;50.848;4.334;2023-07-31T01:56:47;18.30;99.90
14475;DHT22;7323;50.848;4.334;2023-07-31T01:59:13;18.10;99.90
14475;DHT22;7323;50.848;4.334;2023-07-31T02:01:38;18.20;99.90
14475;DHT22;7323;50.848;4.334;2023-07-31T02:04:04;18.30;99.90
14475;DHT22;7323;50.848;4.334;2023-07-31T02:06:30;18.30;99.90
14475;DHT22;7323;50.848;4.334;2023-07-31T02:08:56;18.40;99.90
14475;DHT22;7323;50.848;4.334;2023-07-31T02:11:21;18.20;99.90
14475;DHT22;7323;50.848;4.334;2023-07-31T02:13:47;18.20;99.90
14475;DHT22;7323;50.848;4.334;2023-07-31T02:16:13;18.20;99.90
14475;DHT22;7323;50.848;4.334;2023-07-31T02:18:39;18.10;99.90
14475;DHT22;7323;50.848;4.334;2023-07-31T02:21:04;18.10;99.90
14475;DHT22;7323;50.848;4.334;2023-07-31T02:23:30;18.10;99.90
14475;DHT22;7323;50.848;4.334;2023-07-31T02:25:55;18.10;99.90
14475;DHT22;7323;50.848;4.334;2023-07-31T02:28:21;18.10;99.90
14475;DHT22;7323;50.848;4.334;2023-07-31T02:30:47;18.20;99.90
14475;DHT22;7323;50.848;4.334;2023-07-31T02:33:12;18.20;99.90
14475;DHT22;7323;50.848;4.334;2023-07-31T02:35:38;18.20;99.90
14475;DHT22;7323;50.848;4.334;2023-07-31T02:38:03;18.10;99.90
14475;DHT22;7323;50.848;4.334;2023-07-31T02:40:29;18.10;99.90
14475;DHT22;7323;50.848;4.334;2023-07-31T02:42:55;18.20;99.90
14475;DHT22;7323;50.848;4.334;2023-07-31T02:45:20;18.10;99.90
14475;DHT22;7323;50.848;4.334;2023-07-31T02:47:46;18.10;99.90
14475;DHT22;7323;50.848;4.334;2023-07-31T02:50:12;18.10;99.90
14475;DHT22;7323;50.848;4.334;2023-07-31T02:52:37;18.10;99.90
14475;DHT22;7323;50.848;4.334;2023-07-31T02:55:03;18.20;99.90
14475;DHT22;7323;50.848;4.334;2023-07-31T02:57:29;18.10;99.90
14475;DHT22;7323;50.848;4.334;2023-07-31T02:59:55;18.10;99.90
14475;DHT22;7323;50.848;4.334;2023-07-31T03:02:20;18.20;99.90
14475;DHT22;7323;50.848;4.334;2023-07-31T03:04:46;18.10;99.90
14475;DHT22;7323;50.848;4.334;2023-07-31T03:07:13;18.10;99.90
14475;DHT22;7323;50.848;4.334;2023-07-31T03:09:38;18.00;99.90
14475;DHT22;7323;50.848;4.334;2023-07-31T03:12:04;18.10;99.90
14475;DHT22;7323;50.848;4.334;2023-07-31T03:14:30;18.00;99.90
14475;DHT22;7323;50.848;4.334;2023-07-31T03:16:58;18.00;99.90
14475;DHT22;7323;50.848;4.334;2023-07-31T03:19:25;18.00;99.90
14475;DHT22;7323;50.848;4.334;2023-07-31T03:21:51;17.90;99.90
14475;DHT22;7323;50.848;4.334;2023-07-31T03:24:16;17.80;99.90
14475;DHT22;7323;50.848;4.334;2023-07-31T03:26:42;17.90;99.90
14475;DHT22;7323;50.848;4.334;2023-07-31T03:29:08;17.90;99.90
14475;DHT22;7323;50.848;4.334;2023-07-31T03:31:34;17.90;99.90
14475;DHT22;7323;50.848;4.334;2023-07-31T03:33:59;17.90;99.90
14475;DHT22;7323;50.848;4.334;2023-07-31T03:36:25;17.90;99.90
14475;DHT22;7323;50.848;4.334;2023-07-31T03:38:52;17.90;99.90
14475;DHT22;7323;50.848;4.334;2023-07-31T03:41:17;17.90;99.90
14475;DHT22;7323;50.848;4.334;2023-07-31T03:43:43;17.80;99.90
14475;DHT22;7323;50.848;4.334;2023-07-31T03:46:09;17.80;99.90
14475;DHT22;7323;50.848;4.334;2023-07-31T03:48:34;17.80;99.90
14475;DHT22;7323;50.848;4.334;2023-07-31T03:51:00;17.80;99.90
14475;DHT22;7323;50.848;4.334;2023-07-31T03:53:26;17.70;99.90
14475;DHT22;7323;50.848;4.334;2023-07-31T03:55:51;17.70;99.90
14475;DHT22;7323;50.848;4.334;2023-07-31T03:58:17;17.70;99.90
14475;DHT22;7323;50.848;4.334;2023-07-31T04:00:42;17.70;99.90
14475;DHT22;7323;50.848;4.334;2023-07-31T04:03:14;17.70;99.90
14475;DHT22;7323;50.848;4.334;2023-07-31T04:05:40;17.60;99.90
14475;DHT22;7323;50.848;4.334;2023-07-31T04:08:05;17.70;99.90
14475;DHT22;7323;50.848;4.334;2023-07-31T04:10:31;17.60;99.90
14475;DHT22;7323;50.848;4.334;2023-07-31T04:12:59;17.70;99.90
14475;DHT22;7323;50.848;4.334;2023-07-31T04:15:25;17.60;99.90
14475;DHT22;7323;50.848;4.334;2023-07-31T04:17:51;17.60;99.90
14475;DHT22;7323;50.848;4.334;2023-07-31T04:20:17;17.60;99.90
14475;DHT22;7323;50.848;4.334;2023-07-31T04:22:44;17.60;99.90
14475;DHT22;7323;50.848;4.334;2023-07-31T04:25:09;17.60;99.90
14475;DHT22;7323;50.848;4.334;2023-07-31T04:27:35;17.60;99.90
14475;DHT22;7323;50.848;4.334;2023-07-31T04:30:02;17.60;99.90
14475;DHT22;7323;50.848;4.334;2023-07-31T04:32:28;17.60;99.90
14475;DHT22;7323;50.848;4.334;2023-07-31T04:34:55;17.60;99.90
14475;DHT22;7323;50.848;4.334;2023-07-31T04:37:20;17.70;99.90
14475;DHT22;7323;50.848;4.334;2023-07-31T04:39:46;17.70;99.90
14475;DHT22;7323;50.848;4.334;2023-07-31T04:42:12;17.60;99.90
14475;DHT22;7323;50.848;4.334;2023-07-31T04:44:37;17.60;99.90
14475;DHT22;7323;50.848;4.334;2023-07-31T04:47:03;17.60;99.90
14475;DHT22;7323;50.848;4.334;2023-07-31T04:49:29;17.70;99.90
14475;DHT22;7323;50.848;4.334;2023-07-31T04:51:54;17.70;99.90
14475;DHT22;7323;50.848;4.334;2023-07-31T04:54:20;17.70;99.90
14475;DHT22;7323;50.848;4.334;2023-07-31T04:56:46;17.70;99.90
14475;DHT22;7323;50.848;4.334;2023-07-31T04:59:13;17.70;99.90
14475;DHT22;7323;50.848;4.334;2023-07-31T05:01:39;17.80;99.90
14475;DHT22;7323;50.848;4.334;2023-07-31T05:04:05;17.80;99.90
14475;DHT22;7323;50.848;4.334;2023-07-31T05:06:30;17.70;99.90
14475;DHT22;7323;50.848;4.334;2023-07-31T05:08:56;17.60;99.90
14475;DHT22;7323;50.848;4.334;2023-07-31T05:11:22;17.60;99.90
14475;DHT22;7323;50.848;4.334;2023-07-31T05:13:47;17.50;99.90
14475;DHT22;7323;50.848;4.334;2023-07-31T05:16:13;17.60;99.90
14475;DHT22;7323;50.848;4.334;2023-07-31T05:18:38;17.50;99.90
14475;DHT22;7323;50.848;4.334;2023-07-31T05:21:05;17.40;99.90
14475;DHT22;7323;50.848;4.334;2023-07-31T05:23:31;17.40;99.90
14475;DHT22;7323;50.848;4.334;2023-07-31T05:26:07;17.40;99.90
14475;DHT22;7323;50.848;4.334;2023-07-31T05:28:36;17.30;99.90
14475;DHT22;7323;50.848;4.334;2023-07-31T05:31:05;17.30;99.90
14475;DHT22;7323;50.848;4.334;2023-07-31T05:33:31;17.30;99.90
14475;DHT22;7323;50.848;4.334;2023-07-31T05:35:57;17.20;99.90
14475;DHT22;7323;50.848;4.334;2023-07-31T05:38:22;17.20;99.90
14475;DHT22;7323;50.848;4.334;2023-07-31T05:40:48;17.10;99.90
14475;DHT22;7323;50.848;4.334;2023-07-31T05:43:15;17.20;99.90
14475;DHT22;7323;50.848;4.334;2023-07-31T05:45:42;17.20;99.90
14475;DHT22;7323;50.848;4.334;2023-07-31T05:48:08;17.30;99.90
14475;DHT22;7323;50.848;4.334;2023-07-31T05:50:34;17.30;99.90
14475;DHT22;7323;50.848;4.334;2023-07-31T05:52:59;17.30;99.90
14475;DHT22;7323;50.848;4.334;2023-07-31T05:55:25;17.30;99.90
14475;DHT22;7323;50.848;4.334;2023-07-31T05:57:54;17.30;99.90
14475;DHT22;7323;50.848;4.334;2023-07-31T06:00:20;17.40;99.90
14475;DHT22;7323;50.848;4.334;2023-07-31T06:02:47;17.30;99.90
14475;DHT22;7323;50.848;4.334;2023-07-31T06:05:13;17.30;99.90
14475;DHT22;7323;50.848;4.334;2023-07-31T06:07:38;17.40;99.90
14475;DHT22;7323;50.848;4.334;2023-07-31T06:10:06;17.30;99.90
14475;DHT22;7323;50.848;4.334;2023-07-31T06:12:32;17.40;99.90
14475;DHT22;7323;50.848;4.334;2023-07-31T06:14:58;17.40;99.90
14475;DHT22;7323;50.848;4.334;2023-07-31T06:17:23;17.40;99.90
14475;DHT22;7323;50.848;4.334;2023-07-31T06:19:50;17.40;99.90
14475;DHT22;7323;50.848;4.334;2023-07-31T06:22:17;17.40;99.90
14475;DHT22;7323;50.848;4.334;2023-07-31T06:24:43;17.50;99.90
14475;DHT22;7323;50.848;4.334;2023-07-31T06:27:10;17.40;99.90
14475;DHT22;7323;50.848;4.334;2023-07-31T06:29:36;17.50;99.90
14475;DHT22;7323;50.848;4.334;2023-07-31T06:32:03;17.50;99.90
14475;DHT22;7323;50.848;4.334;2023-07-31T06:34:28;17.60;99.90
14475;DHT22;7323;50.848;4.334;2023-07-31T06:36:58;17.60;99.90
14475;DHT22;7323;50.848;4.334;2023-07-31T06:39:24;17.60;99.90
14475;DHT22;7323;50.848;4.334;2023-07-31T06:41:49;17.60;99.90
14475;DHT22;7323;50.848;4.334;2023-07-31T06:44:15;17.70;99.90
14475;DHT22;7323;50.848;4.334;2023-07-31T06:46:42;17.60;99.90
14475;DHT22;7323;50.848;4.334;2023-07-31T06:49:08;17.60;99.90
14475;DHT22;7323;50.848;4.334;2023-07-31T06:51:34;17.60;99.90
14475;DHT22;7323;50.848;4.334;2023-07-31T06:54:01;17.80;99.90
14475;DHT22;7323;50.848;4.334;2023-07-31T06:56:26;17.80;99.90
14475;DHT22;7323;50.848;4.334;2023-07-31T06:58:52;17.80;99.90
14475;DHT22;7323;50.848;4.334;2023-07-31T07:01:18;17.90;99.90
14475;DHT22;7323;50.848;4.334;2023-07-31T07:03:44;18.00;99.90
14475;DHT22;7323;50.848;4.334;2023-07-31T07:06:09;18.10;99.90
14475;DHT22;7323;50.848;4.334;2023-07-31T07:08:35;18.20;99.90
14475;DHT22;7323;50.848;4.334;2023-07-31T07:11:01;18.20;99.90
